Online Now
Guests 2
Members   0

24/7 FSX Server
IP: 71.135.74.145
@ KATL until 9/20/19



Information and tools for flight simulation use only - NOT for real avaition

File Flight Plans Here

KATL 180852Z 03009KT 9SM FEW250 26/19 A2997 RMK AO2 SLP136 T02610189 56002KATL 180735Z 1808/1912 02005KT P6SM SCT250 FM181100 06010KT P6SM FEW250 FM181500 09012KT P6SM FEW025 SCT040 FM181800 08012G20KT P6SM BKN045 FM190100 09011KT P6SM SCT040 SCT250
Aviation Digital Data Service (ADDS)



Other FSX servers